Terminal Aerodrome Forecast
Issued by NWS

Home | Current Version | Previous Version | Text Only | Print | Product List | Glossary On
Versions: 1 2 3 4 5 6 7 8 9 10 11 12 13 14 15 16 17 18 19 20 21 22 23 24 25 26
408
FTUS42 KFFC 171132
TAFPDK
TAF
KPDK 171132Z 1712/1812 10004KT 1SM BR FEW005 BKN060
     FM171400 21005KT P6SM BKN015
     FM171900 20009KT P6SM BKN025 BKN250
     FM180300 22005KT P6SM FEW030 SCT080 BKN200
     FM180700 24005KT 4SM BR OVC007=

USA.gov is the U.S. government's official web portal to all federal, state and local government web resources and services.